Positano — IJZJ — position and weather

sailwx.info

Track history (hours):
 
Tides and Currents Weather Stations Pressure Air Temp Water Temp Dewpoint Dewpoint Depression Visibility Wind Speed Wind Dir Waves Ship Positions

Positano

Last reported at 2016-Jun-29 16:18 UTC. Time now 2016-Jun-30 07:03 UTC.
Position N 40°35' E 014°18'.

Length 12 m.

MMSI: 247208300.

Date/timePositionNaut miles runAvg speedWind from/ knotsBaromVisibWave heightAir tempDewpointWater temp
2016-Jun-29 16:18N 40°35' E 014°18'3 4.1
2016-Jun-29 15:33N 40°33' E 014°15'0 0.0
2016-Jun-29 14:33N 40°33' E 014°15'1 0.9
2016-Jun-29 13:33N 40°32' E 014°14'0 0.0
2016-Jun-29 12:19N 40°32' E 014°14'0 0.0
2016-Jun-29 11:32N 40°32' E 014°14'0 0.0
2016-Jun-29 10:33N 40°32' E 014°14'1 0.9
2016-Jun-29 09:33N 40°32' E 014°13'7 0.4
2016-Jun-28 16:33N 40°37' E 014°20'5 5.1
2016-Jun-28 15:31N 40°33' E 014°14'1 0.2
2016-Jun-28 12:30N 40°33' E 014°15'0 0.0
2016-Jun-28 11:28N 40°33' E 014°15'0 0.0
2016-Jun-28 10:33N 40°33' E 014°15'1 1.3
2016-Jun-28 09:33N 40°34' E 014°16'3 2.8
2016-Jun-28 08:30N 40°33' E 014°12'7 7.2
2016-Jun-28 07:33N 40°36' E 014°20'0 0.0
2016-Jun-26 16:33N 40°37' E 014°20'5 5.3
2016-Jun-26 15:33N 40°33' E 014°14'1 0.7
2016-Jun-26 14:32N 40°33' E 014°15'0 0.0
2016-Jun-26 13:33N 40°33' E 014°15'0 0.0
2016-Jun-26 12:32N 40°33' E 014°15'0 0.0
2016-Jun-26 10:12N 40°33' E 014°15'1 1.3
2016-Jun-26 09:33N 40°33' E 014°15'5 2.4
2016-Jun-26 07:30N 40°36' E 014°20'0 0.0
2016-Jun-25 16:33N 40°37' E 014°20'5 5.1
2016-Jun-25 15:31N 40°33' E 014°14'1 0.7
2016-Jun-25 14:32N 40°33' E 014°15'0 0.0
2016-Jun-25 13:33N 40°33' E 014°15'0 0.0
2016-Jun-25 12:34N 40°33' E 014°15'1 0.2
2016-Jun-25 09:33N 40°33' E 014°14'1 0.7
2016-Jun-25 08:32N 40°33' E 014°14'5 4.7
2016-Jun-25 07:33N 40°36' E 014°19'1 0.1
2016-Jun-24 17:12N 40°37' E 014°20'1 2.1
2016-Jun-24 16:32N 40°36' E 014°19'5 2.5
2016-Jun-24 14:33N 40°32' E 014°14'0 0.0
2016-Jun-24 13:33N 40°32' E 014°14'0 0.0
2016-Jun-24 12:32N 40°32' E 014°14'0 0.0
2016-Jun-24 11:33N 40°32' E 014°14'0 0.0
2016-Jun-24 10:33N 40°32' E 014°14'1 0.7
2016-Jun-24 08:33N 40°32' E 014°12'5 5.4
2016-Jun-24 07:33N 40°35' E 014°18'  
2016-Jun-21 16:33N 40°37' E 014°20'6 0.9
2016-Jun-21 10:29N 40°33' E 014°15'1 0.7
2016-Jun-21 09:33N 40°33' E 014°14'  
Track history (hours):
 
Tides and Currents Weather Stations Pressure Air Temp Water Temp Dewpoint Dewpoint Depression Visibility Wind Speed Wind Dir Waves Ship Positions

Positano

Last reported at 2016-Jun-29 16:18 UTC. Time now 2016-Jun-30 07:03 UTC.
Position N 40°35' E 014°18'.

Length 12 m.

MMSI: 247208300.

Date/timePositionNaut miles runAvg speedWind from/ knotsBaromVisibWave heightAir tempDewpointWater temp
2016-Jun-29 16:18N 40°35' E 014°18'3 4.1
2016-Jun-29 15:33N 40°33' E 014°15'0 0.0
2016-Jun-29 14:33N 40°33' E 014°15'1 0.9
2016-Jun-29 13:33N 40°32' E 014°14'0 0.0
2016-Jun-29 12:19N 40°32' E 014°14'0 0.0
2016-Jun-29 11:32N 40°32' E 014°14'0 0.0
2016-Jun-29 10:33N 40°32' E 014°14'1 0.9
2016-Jun-29 09:33N 40°32' E 014°13'7 0.4
2016-Jun-28 16:33N 40°37' E 014°20'5 5.1
2016-Jun-28 15:31N 40°33' E 014°14'1 0.2
2016-Jun-28 12:30N 40°33' E 014°15'0 0.0
2016-Jun-28 11:28N 40°33' E 014°15'0 0.0
2016-Jun-28 10:33N 40°33' E 014°15'1 1.3
2016-Jun-28 09:33N 40°34' E 014°16'3 2.8
2016-Jun-28 08:30N 40°33' E 014°12'7 7.2
2016-Jun-28 07:33N 40°36' E 014°20'0 0.0
2016-Jun-26 16:33N 40°37' E 014°20'5 5.3
2016-Jun-26 15:33N 40°33' E 014°14'1 0.7
2016-Jun-26 14:32N 40°33' E 014°15'0 0.0
2016-Jun-26 13:33N 40°33' E 014°15'0 0.0
2016-Jun-26 12:32N 40°33' E 014°15'0 0.0
2016-Jun-26 10:12N 40°33' E 014°15'1 1.3
2016-Jun-26 09:33N 40°33' E 014°15'5 2.4
2016-Jun-26 07:30N 40°36' E 014°20'0 0.0
2016-Jun-25 16:33N 40°37' E 014°20'5 5.1
2016-Jun-25 15:31N 40°33' E 014°14'1 0.7
2016-Jun-25 14:32N 40°33' E 014°15'0 0.0
2016-Jun-25 13:33N 40°33' E 014°15'0 0.0
2016-Jun-25 12:34N 40°33' E 014°15'1 0.2
2016-Jun-25 09:33N 40°33' E 014°14'1 0.7
2016-Jun-25 08:32N 40°33' E 014°14'5 4.7
2016-Jun-25 07:33N 40°36' E 014°19'1 0.1
2016-Jun-24 17:12N 40°37' E 014°20'1 2.1
2016-Jun-24 16:32N 40°36' E 014°19'5 2.5
2016-Jun-24 14:33N 40°32' E 014°14'0 0.0
2016-Jun-24 13:33N 40°32' E 014°14'0 0.0
2016-Jun-24 12:32N 40°32' E 014°14'0 0.0
2016-Jun-24 11:33N 40°32' E 014°14'0 0.0
2016-Jun-24 10:33N 40°32' E 014°14'1 0.7
2016-Jun-24 08:33N 40°32' E 014°12'5 5.4
2016-Jun-24 07:33N 40°35' E 014°18'  
2016-Jun-21 16:33N 40°37' E 014°20'6 0.9
2016-Jun-21 10:29N 40°33' E 014°15'1 0.7
2016-Jun-21 09:33N 40°33' E 014°14'  

Dump ship's entire track history